sensor_id;sensor_type;location;lat;lon;timestamp;P1;durP1;ratioP1;P2;durP2;ratioP2
51732;SDS011;39139;53.144;6.244;2023-04-21T00:00:25;36.28;;;23.42;;
51732;SDS011;39139;53.144;6.244;2023-04-21T00:02:51;30.25;;;22.02;;
51732;SDS011;39139;53.144;6.244;2023-04-21T00:05:17;34.50;;;23.15;;
51732;SDS011;39139;53.144;6.244;2023-04-21T00:07:42;35.78;;;23.80;;
51732;SDS011;39139;53.144;6.244;2023-04-21T00:10:08;34.28;;;23.08;;
51732;SDS011;39139;53.144;6.244;2023-04-21T00:12:35;32.40;;;22.85;;
51732;SDS011;39139;53.144;6.244;2023-04-21T00:15:02;36.22;;;23.00;;
51732;SDS011;39139;53.144;6.244;2023-04-21T00:17:28;29.23;;;22.17;;
51732;SDS011;39139;53.144;6.244;2023-04-21T00:19:54;33.65;;;21.08;;
51732;SDS011;39139;53.144;6.244;2023-04-21T00:22:20;32.75;;;21.85;;
51732;SDS011;39139;53.144;6.244;2023-04-21T00:24:46;29.00;;;22.63;;
51732;SDS011;39139;53.144;6.244;2023-04-21T00:27:12;32.67;;;23.73;;
51732;SDS011;39139;53.144;6.244;2023-04-21T00:29:39;34.20;;;23.83;;
51732;SDS011;39139;53.144;6.244;2023-04-21T00:32:05;29.73;;;23.17;;
51732;SDS011;39139;53.144;6.244;2023-04-21T00:34:35;29.00;;;21.38;;
51732;SDS011;39139;53.144;6.244;2023-04-21T00:37:01;27.88;;;21.15;;
51732;SDS011;39139;53.144;6.244;2023-04-21T00:39:27;31.13;;;22.45;;
51732;SDS011;39139;53.144;6.244;2023-04-21T00:41:53;30.52;;;22.00;;
51732;SDS011;39139;53.144;6.244;2023-04-21T00:44:19;34.80;;;21.65;;
51732;SDS011;39139;53.144;6.244;2023-04-21T00:46:45;32.50;;;21.42;;
51732;SDS011;39139;53.144;6.244;2023-04-21T00:49:12;29.00;;;18.65;;
51732;SDS011;39139;53.144;6.244;2023-04-21T00:51:38;33.40;;;20.88;;
51732;SDS011;39139;53.144;6.244;2023-04-21T00:54:05;28.77;;;19.70;;
51732;SDS011;39139;53.144;6.244;2023-04-21T00:56:32;27.15;;;19.15;;
51732;SDS011;39139;53.144;6.244;2023-04-21T00:58:59;24.60;;;18.85;;
51732;SDS011;39139;53.144;6.244;2023-04-21T01:01:29;27.33;;;19.73;;
51732;SDS011;39139;53.144;6.244;2023-04-21T01:03:59;28.05;;;19.73;;
51732;SDS011;39139;53.144;6.244;2023-04-21T01:06:27;33.08;;;20.20;;
51732;SDS011;39139;53.144;6.244;2023-04-21T01:08:53;30.30;;;20.27;;
51732;SDS011;39139;53.144;6.244;2023-04-21T01:11:19;29.27;;;18.55;;
51732;SDS011;39139;53.144;6.244;2023-04-21T01:13:45;26.13;;;19.92;;
51732;SDS011;39139;53.144;6.244;2023-04-21T01:16:15;30.13;;;19.27;;
51732;SDS011;39139;53.144;6.244;2023-04-21T01:18:42;26.92;;;18.58;;
51732;SDS011;39139;53.144;6.244;2023-04-21T01:21:08;25.42;;;18.50;;
51732;SDS011;39139;53.144;6.244;2023-04-21T01:23:35;27.23;;;19.02;;
51732;SDS011;39139;53.144;6.244;2023-04-21T01:26:01;31.00;;;20.17;;
51732;SDS011;39139;53.144;6.244;2023-04-21T01:28:27;28.33;;;19.00;;
51732;SDS011;39139;53.144;6.244;2023-04-21T01:30:52;33.95;;;19.63;;
51732;SDS011;39139;53.144;6.244;2023-04-21T01:33:19;29.52;;;19.63;;
51732;SDS011;39139;53.144;6.244;2023-04-21T01:35:45;32.83;;;20.00;;
51732;SDS011;39139;53.144;6.244;2023-04-21T01:38:11;29.27;;;18.80;;
51732;SDS011;39139;53.144;6.244;2023-04-21T01:40:37;30.73;;;20.30;;
51732;SDS011;39139;53.144;6.244;2023-04-21T01:43:05;27.35;;;20.45;;
51732;SDS011;39139;53.144;6.244;2023-04-21T01:45:31;33.25;;;20.63;;
51732;SDS011;39139;53.144;6.244;2023-04-21T01:47:57;30.58;;;20.73;;
51732;SDS011;39139;53.144;6.244;2023-04-21T01:50:23;35.20;;;20.75;;
51732;SDS011;39139;53.144;6.244;2023-04-21T01:52:48;27.00;;;19.42;;
51732;SDS011;39139;53.144;6.244;2023-04-21T01:55:14;27.58;;;19.83;;
51732;SDS011;39139;53.144;6.244;2023-04-21T01:57:40;28.23;;;19.95;;
51732;SDS011;39139;53.144;6.244;2023-04-21T02:00:06;29.55;;;18.13;;
51732;SDS011;39139;53.144;6.244;2023-04-21T02:02:33;34.78;;;20.05;;
51732;SDS011;39139;53.144;6.244;2023-04-21T02:04:58;24.55;;;18.98;;
51732;SDS011;39139;53.144;6.244;2023-04-21T02:07:24;26.55;;;19.75;;
51732;SDS011;39139;53.144;6.244;2023-04-21T02:09:50;29.30;;;19.58;;
51732;SDS011;39139;53.144;6.244;2023-04-21T02:12:15;28.02;;;19.02;;
51732;SDS011;39139;53.144;6.244;2023-04-21T02:14:41;24.63;;;18.08;;
51732;SDS011;39139;53.144;6.244;2023-04-21T02:17:07;26.92;;;19.67;;
51732;SDS011;39139;53.144;6.244;2023-04-21T02:19:32;27.98;;;19.98;;
51732;SDS011;39139;53.144;6.244;2023-04-21T02:21:58;28.98;;;19.20;;
51732;SDS011;39139;53.144;6.244;2023-04-21T02:24:23;25.80;;;18.60;;
51732;SDS011;39139;53.144;6.244;2023-04-21T02:26:49;30.67;;;19.45;;
51732;SDS011;39139;53.144;6.244;2023-04-21T02:29:15;32.30;;;20.17;;
51732;SDS011;39139;53.144;6.244;2023-04-21T02:31:40;25.83;;;17.67;;
51732;SDS011;39139;53.144;6.244;2023-04-21T02:34:06;27.27;;;19.02;;
51732;SDS011;39139;53.144;6.244;2023-04-21T02:36:32;30.85;;;18.70;;
51732;SDS011;39139;53.144;6.244;2023-04-21T02:38:58;27.00;;;18.65;;
51732;SDS011;39139;53.144;6.244;2023-04-21T02:41:23;24.50;;;18.13;;
51732;SDS011;39139;53.144;6.244;2023-04-21T02:43:49;27.45;;;17.33;;
51732;SDS011;39139;53.144;6.244;2023-04-21T02:46:15;23.58;;;17.88;;
51732;SDS011;39139;53.144;6.244;2023-04-21T02:48:40;24.27;;;18.20;;
51732;SDS011;39139;53.144;6.244;2023-04-21T02:51:13;30.08;;;17.77;;
51732;SDS011;39139;53.144;6.244;2023-04-21T02:53:39;29.35;;;18.80;;
51732;SDS011;39139;53.144;6.244;2023-04-21T02:56:06;26.13;;;18.63;;
51732;SDS011;39139;53.144;6.244;2023-04-21T02:58:33;25.58;;;17.88;;
51732;SDS011;39139;53.144;6.244;2023-04-21T03:01:00;30.65;;;18.92;;
51732;SDS011;39139;53.144;6.244;2023-04-21T03:03:27;30.48;;;19.48;;
51732;SDS011;39139;53.144;6.244;2023-04-21T03:05:59;24.55;;;18.33;;
51732;SDS011;39139;53.144;6.244;2023-04-21T03:08:26;31.33;;;18.40;;
51732;SDS011;39139;53.144;6.244;2023-04-21T03:10:51;26.73;;;18.92;;
51732;SDS011;39139;53.144;6.244;2023-04-21T03:13:17;26.13;;;18.58;;
51732;SDS011;39139;53.144;6.244;2023-04-21T03:15:43;26.58;;;18.27;;
51732;SDS011;39139;53.144;6.244;2023-04-21T03:18:09;25.88;;;18.15;;
51732;SDS011;39139;53.144;6.244;2023-04-21T03:20:35;28.10;;;17.48;;
51732;SDS011;39139;53.144;6.244;2023-04-21T03:23:01;24.48;;;18.25;;
51732;SDS011;39139;53.144;6.244;2023-04-21T03:25:26;27.48;;;17.67;;
51732;SDS011;39139;53.144;6.244;2023-04-21T03:27:53;33.67;;;18.08;;
51732;SDS011;39139;53.144;6.244;2023-04-21T03:30:19;25.98;;;17.42;;
51732;SDS011;39139;53.144;6.244;2023-04-21T03:32:45;22.55;;;16.92;;
51732;SDS011;39139;53.144;6.244;2023-04-21T03:35:10;23.58;;;16.67;;
51732;SDS011;39139;53.144;6.244;2023-04-21T03:37:36;25.98;;;17.90;;
51732;SDS011;39139;53.144;6.244;2023-04-21T03:40:02;22.55;;;16.70;;
51732;SDS011;39139;53.144;6.244;2023-04-21T03:42:31;29.55;;;17.02;;
51732;SDS011;39139;53.144;6.244;2023-04-21T03:45:04;21.75;;;16.25;;
51732;SDS011;39139;53.144;6.244;2023-04-21T03:47:30;27.67;;;17.00;;
51732;SDS011;39139;53.144;6.244;2023-04-21T03:49:56;25.05;;;17.65;;
51732;SDS011;39139;53.144;6.244;2023-04-21T03:52:22;21.38;;;16.73;;
51732;SDS011;39139;53.144;6.244;2023-04-21T03:54:48;24.35;;;16.63;;
51732;SDS011;39139;53.144;6.244;2023-04-21T03:57:13;29.35;;;16.67;;
51732;SDS011;39139;53.144;6.244;2023-04-21T03:59:39;22.05;;;15.15;;
51732;SDS011;39139;53.144;6.244;2023-04-21T04:02:05;23.02;;;16.27;;
51732;SDS011;39139;53.144;6.244;2023-04-21T04:04:31;29.35;;;16.15;;
51732;SDS011;39139;53.144;6.244;2023-04-21T04:06:57;24.98;;;16.75;;
51732;SDS011;39139;53.144;6.244;2023-04-21T04:09:22;26.45;;;17.20;;
51732;SDS011;39139;53.144;6.244;2023-04-21T04:11:48;23.52;;;16.13;;
51732;SDS011;39139;53.144;6.244;2023-04-21T04:14:14;21.88;;;15.93;;
51732;SDS011;39139;53.144;6.244;2023-04-21T04:16:40;21.30;;;15.43;;
51732;SDS011;39139;53.144;6.244;2023-04-21T04:19:06;21.92;;;16.35;;
51732;SDS011;39139;53.144;6.244;2023-04-21T04:21:32;20.83;;;15.43;;
51732;SDS011;39139;53.144;6.244;2023-04-21T04:23:58;21.55;;;16.50;;
51732;SDS011;39139;53.144;6.244;2023-04-21T04:26:24;22.73;;;15.48;;
51732;SDS011;39139;53.144;6.244;2023-04-21T04:28:50;24.25;;;15.90;;
51732;SDS011;39139;53.144;6.244;2023-04-21T04:31:17;22.88;;;16.48;;
51732;SDS011;39139;53.144;6.244;2023-04-21T04:33:43;27.40;;;16.73;;
51732;SDS011;39139;53.144;6.244;2023-04-21T04:36:09;23.55;;;15.82;;
51732;SDS011;39139;53.144;6.244;2023-04-21T04:38:36;23.10;;;15.88;;
51732;SDS011;39139;53.144;6.244;2023-04-21T04:41:02;24.27;;;16.25;;
51732;SDS011;39139;53.144;6.244;2023-04-21T04:43:29;24.70;;;15.88;;
51732;SDS011;39139;53.144;6.244;2023-04-21T04:46:00;27.30;;;15.45;;
51732;SDS011;39139;53.144;6.244;2023-04-21T04:48:26;23.38;;;15.02;;
51732;SDS011;39139;53.144;6.244;2023-04-21T04:50:52;22.75;;;15.15;;
51732;SDS011;39139;53.144;6.244;2023-04-21T04:53:18;23.08;;;14.98;;
51732;SDS011;39139;53.144;6.244;2023-04-21T04:55:44;20.98;;;14.75;;
51732;SDS011;39139;53.144;6.244;2023-04-21T04:58:11;24.90;;;16.15;;
51732;SDS011;39139;53.144;6.244;2023-04-21T05:00:36;26.27;;;14.40;;
51732;SDS011;39139;53.144;6.244;2023-04-21T05:03:02;27.58;;;16.20;;
51732;SDS011;39139;53.144;6.244;2023-04-21T05:05:28;22.48;;;15.90;;
51732;SDS011;39139;53.144;6.244;2023-04-21T05:07:54;24.17;;;14.65;;
51732;SDS011;39139;53.144;6.244;2023-04-21T05:10:20;18.90;;;14.15;;
51732;SDS011;39139;53.144;6.244;2023-04-21T05:12:46;17.48;;;14.23;;
51732;SDS011;39139;53.144;6.244;2023-04-21T05:15:11;18.30;;;14.02;;
51732;SDS011;39139;53.144;6.244;2023-04-21T05:17:37;21.35;;;14.13;;
51732;SDS011;39139;53.144;6.244;2023-04-21T05:20:03;20.60;;;13.93;;
51732;SDS011;39139;53.144;6.244;2023-04-21T05:22:30;20.70;;;13.68;;
51732;SDS011;39139;53.144;6.244;2023-04-21T05:24:55;31.20;;;14.07;;
51732;SDS011;39139;53.144;6.244;2023-04-21T05:27:21;23.25;;;14.35;;
51732;SDS011;39139;53.144;6.244;2023-04-21T05:29:47;16.83;;;13.20;;
51732;SDS011;39139;53.144;6.244;2023-04-21T05:32:13;16.33;;;13.32;;
51732;SDS011;39139;53.144;6.244;2023-04-21T05:34:39;20.98;;;13.43;;
51732;SDS011;39139;53.144;6.244;2023-04-21T05:37:04;27.17;;;13.73;;
51732;SDS011;39139;53.144;6.244;2023-04-21T05:39:30;22.20;;;12.88;;
51732;SDS011;39139;53.144;6.244;2023-04-21T05:41:56;21.88;;;13.18;;
51732;SDS011;39139;53.144;6.244;2023-04-21T05:44:22;17.67;;;12.48;;
51732;SDS011;39139;53.144;6.244;2023-04-21T05:46:49;28.60;;;14.40;;
51732;SDS011;39139;53.144;6.244;2023-04-21T05:49:15;19.60;;;12.80;;
51732;SDS011;39139;53.144;6.244;2023-04-21T05:51:40;20.15;;;13.32;;
51732;SDS011;39139;53.144;6.244;2023-04-21T05:54:06;23.35;;;12.82;;
51732;SDS011;39139;53.144;6.244;2023-04-21T05:56:31;20.40;;;13.05;;
51732;SDS011;39139;53.144;6.244;2023-04-21T05:58:57;16.05;;;12.65;;
51732;SDS011;39139;53.144;6.244;2023-04-21T06:01:23;23.23;;;12.20;;
51732;SDS011;39139;53.144;6.244;2023-04-21T06:03:48;21.77;;;12.90;;
51732;SDS011;39139;53.144;6.244;2023-04-21T06:06:14;18.13;;;11.80;;
51732;SDS011;39139;53.144;6.244;2023-04-21T06:08:41;19.92;;;11.90;;
51732;SDS011;39139;53.144;6.244;2023-04-21T06:11:07;19.42;;;12.30;;
51732;SDS011;39139;53.144;6.244;2023-04-21T06:13:32;21.10;;;11.70;;
51732;SDS011;39139;53.144;6.244;2023-04-21T06:15:58;18.90;;;11.63;;
51732;SDS011;39139;53.144;6.244;2023-04-21T06:18:25;17.38;;;11.38;;
51732;SDS011;39139;53.144;6.244;2023-04-21T06:20:52;17.38;;;11.65;;
51732;SDS011;39139;53.144;6.244;2023-04-21T06:23:18;15.73;;;11.55;;
51732;SDS011;39139;53.144;6.244;2023-04-21T06:25:44;15.88;;;10.82;;
51732;SDS011;39139;53.144;6.244;2023-04-21T06:28:10;15.32;;;11.25;;
51732;SDS011;39139;53.144;6.244;2023-04-21T06:30:36;19.45;;;11.38;;
51732;SDS011;39139;53.144;6.244;2023-04-21T06:33:01;18.25;;;11.75;;
51732;SDS011;39139;53.144;6.244;2023-04-21T06:35:28;20.25;;;11.60;;
51732;SDS011;39139;53.144;6.244;2023-04-21T06:37:54;19.10;;;10.27;;
51732;SDS011;39139;53.144;6.244;2023-04-21T06:40:20;20.70;;;10.88;;
51732;SDS011;39139;53.144;6.244;2023-04-21T06:42:46;19.00;;;10.32;;
51732;SDS011;39139;53.144;6.244;2023-04-21T06:45:12;17.77;;;11.10;;
51732;SDS011;39139;53.144;6.244;2023-04-21T06:47:37;15.90;;;10.52;;
51732;SDS011;39139;53.144;6.244;2023-04-21T06:50:03;16.65;;;10.23;;
51732;SDS011;39139;53.144;6.244;2023-04-21T06:52:30;14.27;;;10.02;;
51732;SDS011;39139;53.144;6.244;2023-04-21T06:54:56;17.13;;;9.65;;
51732;SDS011;39139;53.144;6.244;2023-04-21T06:57:21;19.42;;;9.93;;
51732;SDS011;39139;53.144;6.244;2023-04-21T06:59:47;17.08;;;10.43;;
51732;SDS011;39139;53.144;6.244;2023-04-21T07:02:13;14.38;;;9.65;;
51732;SDS011;39139;53.144;6.244;2023-04-21T07:04:38;12.50;;;8.85;;
51732;SDS011;39139;53.144;6.244;2023-04-21T07:07:04;15.27;;;9.73;;
51732;SDS011;39139;53.144;6.244;2023-04-21T07:09:30;16.60;;;10.05;;
51732;SDS011;39139;53.144;6.244;2023-04-21T07:11:57;20.63;;;11.10;;
51732;SDS011;39139;53.144;6.244;2023-04-21T07:14:23;15.73;;;9.80;;
51732;SDS011;39139;53.144;6.244;2023-04-21T07:16:50;16.60;;;9.77;;
51732;SDS011;39139;53.144;6.244;2023-04-21T07:19:15;14.82;;;10.35;;
51732;SDS011;39139;53.144;6.244;2023-04-21T07:21:41;14.18;;;9.75;;
51732;SDS011;39139;53.144;6.244;2023-04-21T07:24:06;16.88;;;10.15;;
51732;SDS011;39139;53.144;6.244;2023-04-21T07:26:32;16.63;;;9.65;;
51732;SDS011;39139;53.144;6.244;2023-04-21T07:28:58;16.75;;;10.23;;
51732;SDS011;39139;53.144;6.244;2023-04-21T07:31:24;18.35;;;10.38;;
51732;SDS011;39139;53.144;6.244;2023-04-21T07:33:50;15.93;;;11.02;;
51732;SDS011;39139;53.144;6.244;2023-04-21T07:36:15;21.20;;;10.25;;
51732;SDS011;39139;53.144;6.244;2023-04-21T07:38:41;14.75;;;10.80;;
51732;SDS011;39139;53.144;6.244;2023-04-21T07:41:10;15.52;;;9.73;;
51732;SDS011;39139;53.144;6.244;2023-04-21T07:43:37;17.48;;;10.07;;
51732;SDS011;39139;53.144;6.244;2023-04-21T07:46:03;12.55;;;8.68;;
51732;SDS011;39139;53.144;6.244;2023-04-21T07:48:29;15.75;;;10.40;;
51732;SDS011;39139;53.144;6.244;2023-04-21T07:50:55;16.58;;;9.98;;
51732;SDS011;39139;53.144;6.244;2023-04-21T07:53:22;13.93;;;9.18;;
51732;SDS011;39139;53.144;6.244;2023-04-21T07:55:48;14.15;;;9.68;;
51732;SDS011;39139;53.144;6.244;2023-04-21T07:58:14;23.83;;;10.65;;
51732;SDS011;39139;53.144;6.244;2023-04-21T08:00:40;15.00;;;9.40;;
51732;SDS011;39139;53.144;6.244;2023-04-21T08:03:06;19.05;;;10.68;;
51732;SDS011;39139;53.144;6.244;2023-04-21T08:05:32;12.02;;;9.10;;
51732;SDS011;39139;53.144;6.244;2023-04-21T08:07:58;16.67;;;9.68;;
51732;SDS011;39139;53.144;6.244;2023-04-21T08:10:23;15.75;;;9.02;;
51732;SDS011;39139;53.144;6.244;2023-04-21T08:12:49;13.10;;;8.38;;
51732;SDS011;39139;53.144;6.244;2023-04-21T08:15:15;14.18;;;9.27;;
51732;SDS011;39139;53.144;6.244;2023-04-21T08:17:41;18.50;;;9.27;;
51732;SDS011;39139;53.144;6.244;2023-04-21T08:20:07;15.25;;;9.00;;
51732;SDS011;39139;53.144;6.244;2023-04-21T08:22:33;14.13;;;8.43;;
51732;SDS011;39139;53.144;6.244;2023-04-21T08:25:02;17.40;;;9.85;;
51732;SDS011;39139;53.144;6.244;2023-04-21T08:27:28;16.00;;;8.93;;
51732;SDS011;39139;53.144;6.244;2023-04-21T08:29:54;13.73;;;9.38;;
51732;SDS011;39139;53.144;6.244;2023-04-21T08:32:20;15.05;;;9.02;;
51732;SDS011;39139;53.144;6.244;2023-04-21T08:34:50;17.35;;;8.93;;
51732;SDS011;39139;53.144;6.244;2023-04-21T08:37:17;16.17;;;8.93;;
51732;SDS011;39139;53.144;6.244;2023-04-21T08:39:43;13.38;;;8.57;;
51732;SDS011;39139;53.144;6.244;2023-04-21T08:42:09;14.43;;;8.45;;
51732;SDS011;39139;53.144;6.244;2023-04-21T08:44:37;10.52;;;7.50;;
51732;SDS011;39139;53.144;6.244;2023-04-21T08:47:02;13.43;;;8.43;;
51732;SDS011;39139;53.144;6.244;2023-04-21T08:49:29;15.65;;;7.43;;
51732;SDS011;39139;53.144;6.244;2023-04-21T08:51:58;9.93;;;7.70;;
51732;SDS011;39139;53.144;6.244;2023-04-21T08:54:24;12.30;;;8.07;;
51732;SDS011;39139;53.144;6.244;2023-04-21T08:56:50;8.68;;;7.22;;
51732;SDS011;39139;53.144;6.244;2023-04-21T08:59:16;11.80;;;8.60;;
51732;SDS011;39139;53.144;6.244;2023-04-21T09:04:34;12.93;;;7.50;;
51732;SDS011;39139;53.144;6.244;2023-04-21T09:07:02;11.97;;;7.53;;
51732;SDS011;39139;53.144;6.244;2023-04-21T09:09:27;11.25;;;7.63;;
51732;SDS011;39139;53.144;6.244;2023-04-21T09:11:54;10.85;;;8.07;;
51732;SDS011;39139;53.144;6.244;2023-04-21T09:14:33;14.20;;;9.27;;
51732;SDS011;39139;53.144;6.244;2023-04-21T09:17:02;13.32;;;8.43;;
51732;SDS011;39139;53.144;6.244;2023-04-21T09:19:29;12.63;;;8.90;;
51732;SDS011;39139;53.144;6.244;2023-04-21T09:21:58;19.38;;;9.30;;
51732;SDS011;39139;53.144;6.244;2023-04-21T09:24:25;16.00;;;9.05;;
51732;SDS011;39139;53.144;6.244;2023-04-21T09:26:51;16.58;;;8.57;;
51732;SDS011;39139;53.144;6.244;2023-04-21T09:29:17;13.60;;;8.77;;
51732;SDS011;39139;53.144;6.244;2023-04-21T09:31:46;14.30;;;8.18;;
51732;SDS011;39139;53.144;6.244;2023-04-21T09:34:19;13.13;;;7.85;;
51732;SDS011;39139;53.144;6.244;2023-04-21T09:36:47;11.10;;;8.35;;
51732;SDS011;39139;53.144;6.244;2023-04-21T09:39:12;13.43;;;8.32;;
51732;SDS011;39139;53.144;6.244;2023-04-21T09:41:38;12.35;;;7.88;;
51732;SDS011;39139;53.144;6.244;2023-04-21T09:44:04;14.13;;;8.88;;
51732;SDS011;39139;53.144;6.244;2023-04-21T09:46:33;16.23;;;9.25;;
51732;SDS011;39139;53.144;6.244;2023-04-21T09:49:00;12.23;;;8.27;;
51732;SDS011;39139;53.144;6.244;2023-04-21T09:51:27;14.45;;;9.00;;
51732;SDS011;39139;53.144;6.244;2023-04-21T09:53:58;15.30;;;8.43;;
51732;SDS011;39139;53.144;6.244;2023-04-21T09:56:28;13.15;;;8.18;;
51732;SDS011;39139;53.144;6.244;2023-04-21T09:58:57;10.88;;;7.90;;
51732;SDS011;39139;53.144;6.244;2023-04-21T10:01:25;19.70;;;8.48;;
51732;SDS011;39139;53.144;6.244;2023-04-21T10:03:53;18.33;;;8.73;;
51732;SDS011;39139;53.144;6.244;2023-04-21T10:06:19;13.82;;;8.63;;
51732;SDS011;39139;53.144;6.244;2023-04-21T10:08:45;15.70;;;8.30;;
51732;SDS011;39139;53.144;6.244;2023-04-21T10:11:12;13.98;;;8.02;;
51732;SDS011;39139;53.144;6.244;2023-04-21T10:13:38;18.83;;;9.23;;
51732;SDS011;39139;53.144;6.244;2023-04-21T10:16:06;15.48;;;8.68;;
51732;SDS011;39139;53.144;6.244;2023-04-21T10:18:36;14.43;;;8.30;;
51732;SDS011;39139;53.144;6.244;2023-04-21T10:21:12;9.60;;;7.97;;
51732;SDS011;39139;53.144;6.244;2023-04-21T10:23:51;12.18;;;8.88;;
51732;SDS011;39139;53.144;6.244;2023-04-21T10:26:34;13.38;;;8.15;;
51732;SDS011;39139;53.144;6.244;2023-04-21T10:29:02;18.95;;;8.75;;
51732;SDS011;39139;53.144;6.244;2023-04-21T10:36:31;17.23;;;9.65;;
51732;SDS011;39139;53.144;6.244;2023-04-21T10:39:11;15.05;;;9.15;;
51732;SDS011;39139;53.144;6.244;2023-04-21T10:41:49;10.77;;;8.48;;
51732;SDS011;39139;53.144;6.244;2023-04-21T10:44:15;16.17;;;8.73;;
51732;SDS011;39139;53.144;6.244;2023-04-21T10:49:24;11.68;;;8.98;;
51732;SDS011;39139;53.144;6.244;2023-04-21T10:54:31;12.23;;;8.50;;
51732;SDS011;39139;53.144;6.244;2023-04-21T10:57:01;12.32;;;8.65;;
51732;SDS011;39139;53.144;6.244;2023-04-21T11:01:56;13.45;;;8.13;;
51732;SDS011;39139;53.144;6.244;2023-04-21T11:04:21;11.98;;;8.27;;
51732;SDS011;39139;53.144;6.244;2023-04-21T11:09:36;13.93;;;8.80;;
51732;SDS011;39139;53.144;6.244;2023-04-21T11:12:07;13.57;;;7.93;;
51732;SDS011;39139;53.144;6.244;2023-04-21T11:14:34;9.85;;;8.32;;
51732;SDS011;39139;53.144;6.244;2023-04-21T11:17:01;11.95;;;8.32;;
51732;SDS011;39139;53.144;6.244;2023-04-21T11:19:27;12.02;;;8.02;;
51732;SDS011;39139;53.144;6.244;2023-04-21T11:21:55;16.33;;;8.70;;
51732;SDS011;39139;53.144;6.244;2023-04-21T11:24:21;11.25;;;7.38;;
51732;SDS011;39139;53.144;6.244;2023-04-21T11:26:47;13.27;;;7.95;;
51732;SDS011;39139;53.144;6.244;2023-04-21T11:29:13;10.27;;;7.60;;
51732;SDS011;39139;53.144;6.244;2023-04-21T11:31:40;11.18;;;8.25;;
51732;SDS011;39139;53.144;6.244;2023-04-21T11:34:08;9.13;;;7.88;;
51732;SDS011;39139;53.144;6.244;2023-04-21T11:39:10;14.50;;;7.88;;
51732;SDS011;39139;53.144;6.244;2023-04-21T11:41:38;10.32;;;8.00;;
51732;SDS011;39139;53.144;6.244;2023-04-21T11:44:05;11.20;;;6.75;;
51732;SDS011;39139;53.144;6.244;2023-04-21T11:46:31;14.15;;;6.90;;
51732;SDS011;39139;53.144;6.244;2023-04-21T11:49:01;9.93;;;6.45;;
51732;SDS011;39139;53.144;6.244;2023-04-21T11:51:42;11.95;;;6.53;;
51732;SDS011;39139;53.144;6.244;2023-04-21T11:54:11;8.45;;;6.80;;
51732;SDS011;39139;53.144;6.244;2023-04-21T11:56:42;12.20;;;6.75;;
51732;SDS011;39139;53.144;6.244;2023-04-21T11:59:11;9.48;;;6.60;;
51732;SDS011;39139;53.144;6.244;2023-04-21T12:01:45;10.93;;;6.55;;
51732;SDS011;39139;53.144;6.244;2023-04-21T12:04:16;11.63;;;6.18;;
51732;SDS011;39139;53.144;6.244;2023-04-21T12:06:43;10.15;;;5.70;;
51732;SDS011;39139;53.144;6.244;2023-04-21T12:09:17;6.63;;;5.18;;
51732;SDS011;39139;53.144;6.244;2023-04-21T12:11:46;7.53;;;4.55;;
51732;SDS011;39139;53.144;6.244;2023-04-21T12:14:16;8.18;;;4.53;;
51732;SDS011;39139;53.144;6.244;2023-04-21T12:16:50;14.05;;;4.95;;
51732;SDS011;39139;53.144;6.244;2023-04-21T12:21:59;7.78;;;4.93;;
51732;SDS011;39139;53.144;6.244;2023-04-21T12:24:25;6.53;;;4.60;;
51732;SDS011;39139;53.144;6.244;2023-04-21T12:26:51;8.50;;;4.32;;
51732;SDS011;39139;53.144;6.244;2023-04-21T12:29:16;8.50;;;4.47;;
51732;SDS011;39139;53.144;6.244;2023-04-21T12:31:42;8.65;;;3.95;;
51732;SDS011;39139;53.144;6.244;2023-04-21T12:34:08;7.63;;;3.47;;
51732;SDS011;39139;53.144;6.244;2023-04-21T12:36:33;7.25;;;3.75;;
51732;SDS011;39139;53.144;6.244;2023-04-21T12:39:00;6.90;;;3.55;;
51732;SDS011;39139;53.144;6.244;2023-04-21T12:41:25;7.43;;;3.50;;
51732;SDS011;39139;53.144;6.244;2023-04-21T12:43:51;7.10;;;3.67;;
51732;SDS011;39139;53.144;6.244;2023-04-21T12:46:17;9.70;;;4.18;;
51732;SDS011;39139;53.144;6.244;2023-04-21T12:48:43;9.07;;;4.00;;
51732;SDS011;39139;53.144;6.244;2023-04-21T12:51:08;7.53;;;4.22;;
51732;SDS011;39139;53.144;6.244;2023-04-21T12:53:34;11.27;;;4.18;;
51732;SDS011;39139;53.144;6.244;2023-04-21T12:56:01;10.60;;;3.83;;
51732;SDS011;39139;53.144;6.244;2023-04-21T12:58:27;8.95;;;3.72;;
51732;SDS011;39139;53.144;6.244;2023-04-21T13:00:53;8.00;;;3.15;;
51732;SDS011;39139;53.144;6.244;2023-04-21T13:03:19;10.45;;;3.75;;
51732;SDS011;39139;53.144;6.244;2023-04-21T13:05:45;11.75;;;4.07;;
51732;SDS011;39139;53.144;6.244;2023-04-21T13:08:11;5.20;;;3.75;;
51732;SDS011;39139;53.144;6.244;2023-04-21T13:10:37;8.10;;;3.95;;
51732;SDS011;39139;53.144;6.244;2023-04-21T13:13:03;5.03;;;3.85;;
51732;SDS011;39139;53.144;6.244;2023-04-21T13:15:28;7.93;;;4.10;;
51732;SDS011;39139;53.144;6.244;2023-04-21T13:17:54;6.97;;;3.92;;
51732;SDS011;39139;53.144;6.244;2023-04-21T13:20:20;8.65;;;3.75;;
51732;SDS011;39139;53.144;6.244;2023-04-21T13:22:46;10.95;;;3.92;;
51732;SDS011;39139;53.144;6.244;2023-04-21T13:25:11;7.10;;;3.83;;
51732;SDS011;39139;53.144;6.244;2023-04-21T13:27:37;8.63;;;4.03;;
51732;SDS011;39139;53.144;6.244;2023-04-21T13:30:11;12.27;;;3.88;;
51732;SDS011;39139;53.144;6.244;2023-04-21T13:32:38;10.45;;;3.20;;
51732;SDS011;39139;53.144;6.244;2023-04-21T13:35:05;10.07;;;3.40;;
51732;SDS011;39139;53.144;6.244;2023-04-21T13:37:39;9.23;;;2.97;;
51732;SDS011;39139;53.144;6.244;2023-04-21T13:40:05;7.07;;;2.55;;
51732;SDS011;39139;53.144;6.244;2023-04-21T13:42:33;6.55;;;2.88;;
51732;SDS011;39139;53.144;6.244;2023-04-21T13:45:00;9.80;;;2.80;;
51732;SDS011;39139;53.144;6.244;2023-04-21T13:47:30;14.52;;;3.15;;
51732;SDS011;39139;53.144;6.244;2023-04-21T13:49:56;7.68;;;3.00;;
51732;SDS011;39139;53.144;6.244;2023-04-21T13:52:22;6.53;;;2.63;;
51732;SDS011;39139;53.144;6.244;2023-04-21T13:54:48;4.22;;;2.60;;
51732;SDS011;39139;53.144;6.244;2023-04-21T13:57:14;4.72;;;3.03;;
51732;SDS011;39139;53.144;6.244;2023-04-21T13:59:40;4.43;;;2.83;;
51732;SDS011;39139;53.144;6.244;2023-04-21T14:02:06;8.50;;;2.95;;
51732;SDS011;39139;53.144;6.244;2023-04-21T14:04:31;3.72;;;2.65;;
51732;SDS011;39139;53.144;6.244;2023-04-21T14:06:57;5.22;;;2.58;;
51732;SDS011;39139;53.144;6.244;2023-04-21T14:09:23;3.90;;;2.85;;
51732;SDS011;39139;53.144;6.244;2023-04-21T14:11:49;10.43;;;3.03;;
51732;SDS011;39139;53.144;6.244;2023-04-21T14:14:15;7.47;;;2.75;;
51732;SDS011;39139;53.144;6.244;2023-04-21T14:16:40;8.52;;;2.58;;
51732;SDS011;39139;53.144;6.244;2023-04-21T14:19:06;8.10;;;2.83;;
51732;SDS011;39139;53.144;6.244;2023-04-21T14:21:32;5.97;;;2.50;;
51732;SDS011;39139;53.144;6.244;2023-04-21T14:23:58;4.65;;;3.08;;
51732;SDS011;39139;53.144;6.244;2023-04-21T14:26:24;2.85;;;2.50;;
51732;SDS011;39139;53.144;6.244;2023-04-21T14:28:49;11.90;;;3.20;;
51732;SDS011;39139;53.144;6.244;2023-04-21T14:31:15;9.63;;;2.85;;
51732;SDS011;39139;53.144;6.244;2023-04-21T14:33:41;7.97;;;2.65;;
51732;SDS011;39139;53.144;6.244;2023-04-21T14:36:06;9.15;;;3.25;;
51732;SDS011;39139;53.144;6.244;2023-04-21T14:38:32;10.98;;;2.92;;
51732;SDS011;39139;53.144;6.244;2023-04-21T14:40:58;7.22;;;2.50;;
51732;SDS011;39139;53.144;6.244;2023-04-21T14:43:23;5.55;;;2.42;;
51732;SDS011;39139;53.144;6.244;2023-04-21T14:45:49;6.90;;;2.60;;
51732;SDS011;39139;53.144;6.244;2023-04-21T14:48:15;8.05;;;2.47;;
51732;SDS011;39139;53.144;6.244;2023-04-21T14:50:41;4.80;;;2.53;;